createdAt,value
2019-02-20T00:12:00.444Z,101065.62
2019-02-20T00:35:24.832Z,101002.24
2019-02-20T00:53:46.797Z,101083.88
2019-02-20T01:34:32.439Z,101094.40
2019-02-20T01:39:43.692Z,101091.45
2019-02-20T01:44:52.961Z,101085.20
2019-02-20T01:50:02.636Z,101087.09
2019-02-20T01:55:07.539Z,101084.94
2019-02-20T02:00:16.209Z,101081.41
2019-02-20T02:05:26.979Z,101080.95
2019-02-20T02:10:42.363Z,101078.88
2019-02-20T02:15:40.975Z,101075.86
2019-02-20T02:20:43.659Z,101081.03
2019-02-20T02:25:48.428Z,101076.50
2019-02-20T02:30:55.806Z,101074.83
2019-02-20T02:36:12.102Z,101070.95
2019-02-20T02:41:15.660Z,101065.02
2019-02-20T02:46:24.169Z,101069.31
2019-02-20T02:51:32.016Z,101073.50
2019-02-20T02:56:34.854Z,101063.86
2019-02-20T03:01:41.184Z,101079.95
2019-02-20T03:06:43.793Z,101068.61
2019-02-20T03:11:50.006Z,101064.98
2019-02-20T03:17:01.979Z,101068.84
2019-02-20T03:22:06.567Z,101074.20
2019-02-20T03:27:09.359Z,101074.91
2019-02-20T03:32:17.125Z,101072.85
2019-02-20T03:37:22.434Z,101072.43
2019-02-20T03:42:31.277Z,101083.53
2019-02-20T03:47:34.633Z,101085.20
2019-02-20T03:52:46.107Z,101090.09
2019-02-20T03:57:51.869Z,101090.11
2019-02-20T04:02:55.933Z,101101.09
2019-02-20T04:08:05.563Z,101115.17
2019-02-20T04:13:17.513Z,101064.80
2019-02-20T04:18:20.187Z,101117.05
2019-02-20T04:23:26.199Z,101099.16
2019-02-20T04:28:28.535Z,101104.28
2019-02-20T04:33:31.073Z,101111.37
2019-02-20T04:38:34.447Z,101110.92
2019-02-20T04:43:49.061Z,101110.02
2019-02-20T04:50:09.633Z,101110.98
2019-02-20T05:02:10.992Z,100962.17
2019-02-20T05:13:48.912Z,101100.81
2019-02-20T05:19:16.660Z,101113.66
2019-02-20T05:24:24.725Z,101118.03
2019-02-20T05:29:23.481Z,101125.34
2019-02-20T05:34:36.709Z,101122.40
2019-02-20T05:39:47.313Z,101122.95
2019-02-20T05:44:53.262Z,101121.97
2019-02-20T05:51:01.369Z,101127.61
2019-02-20T05:56:13.019Z,101123.30
2019-02-20T06:01:31.692Z,101126.72
2019-02-20T06:07:21.317Z,101119.69
2019-02-20T06:12:54.466Z,101119.89
2019-02-20T06:18:27.529Z,101136.60
2019-02-20T06:23:50.732Z,101146.28
2019-02-20T06:29:47.080Z,101150.20
2019-02-20T06:41:50.655Z,101157.69
2019-02-20T06:46:53.459Z,101162.86
2019-02-20T06:51:56.278Z,101179.05
2019-02-20T06:56:59.485Z,101183.25
2019-02-20T07:02:02.777Z,101185.34
2019-02-20T07:19:16.759Z,101186.75
2019-02-20T07:25:18.569Z,101210.28
2019-02-20T07:43:42.518Z,101227.53
2019-02-20T07:49:34.268Z,101238.44
2019-02-20T07:56:03.610Z,101245.78
2019-02-20T08:02:57.334Z,101253.32
2019-02-20T08:12:56.266Z,101258.51
2019-02-20T08:37:11.052Z,101273.36
2019-02-20T08:43:03.298Z,101284.41
2019-02-20T08:48:36.620Z,101287.48
2019-02-20T11:30:08.090Z,101306.17
2019-02-20T11:35:30.140Z,101310.17
2019-02-20T14:20:54.960Z,101227.14
2019-02-20T16:37:12.205Z,101231.80
